Time;durP1;ratioP1;P1;durP2;ratioP2;P2;SDS_P1;SDS_P2;PMS_P1;PMS_P2;Temp;Humidity;BMP_temperature;BMP_pressure;BME280_temperature;BME280_humidity;BME280_pressure;Samples;Min_cycle;Max_cycle;Signal;HPM_P1;HPM_P2
2022/10/19 00:00:36;;;;;;;20.70;11.80;;;8.90;99.90;;;;;;4207167;28;20028;-63
2022/10/19 00:02:37;;;;;;;22.50;11.53;;;8.90;99.90;;;;;;4210185;28;20061;-63
2022/10/19 00:04:38;;;;;;;25.27;12.57;;;8.90;99.90;;;;;;4191701;28;20044;-63
2022/10/19 00:06:39;;;;;;;20.40;11.33;;;8.90;99.90;;;;;;4211163;28;20057;-63
2022/10/19 00:08:41;;;;;;;25.93;12.07;;;8.80;99.90;;;;;;4209103;28;20098;-63
2022/10/19 00:10:42;;;;;;;21.53;12.20;;;8.80;99.90;;;;;;4211100;28;20032;-63
2022/10/19 00:12:44;;;;;;;20.00;12.27;;;8.80;99.90;;;;;;4193159;28;20447;-63
2022/10/19 00:14:45;;;;;;;19.70;11.17;;;8.70;99.90;;;;;;4194671;28;20082;-62
2022/10/19 00:16:47;;;;;;;20.00;11.03;;;8.70;99.90;;;;;;4201645;28;20048;-63
2022/10/19 00:18:49;;;;;;;19.27;11.60;;;8.70;99.90;;;;;;4199347;28;20032;-63
2022/10/19 00:20:50;;;;;;;21.37;12.27;;;8.70;99.90;;;;;;4194092;28;20082;-63
2022/10/19 00:22:51;;;;;;;15.87;9.80;;;8.70;99.90;;;;;;4193081;28;20032;-63
2022/10/19 00:24:54;;;;;;;19.83;11.10;;;8.60;99.90;;;;;;4201051;28;20105;-63
2022/10/19 00:26:55;;;;;;;18.93;11.93;;;8.60;99.90;;;;;;4176756;28;20025;-63
2022/10/19 00:28:57;;;;;;;15.77;10.80;;;8.60;99.90;;;;;;4193496;28;20078;-63
2022/10/19 00:31:03;;;;;;;16.30;10.47;;;8.50;99.90;;;;;;4194921;28;20036;-63
2022/10/19 00:33:04;;;;;;;13.80;8.33;;;8.50;99.90;;;;;;4198730;28;20040;-64
2022/10/19 00:35:06;;;;;;;14.90;8.97;;;8.50;99.90;;;;;;4210030;28;20069;-64
2022/10/19 00:37:07;;;;;;;16.27;9.07;;;8.60;99.90;;;;;;4210312;28;20044;-62
2022/10/19 00:39:12;;;;;;;13.53;8.30;;;8.60;99.90;;;;;;4190998;28;20037;-62
2022/10/19 00:41:14;;;;;;;17.10;8.53;;;8.60;99.90;;;;;;4211205;28;20036;-62
2022/10/19 00:43:19;;;;;;;11.00;6.97;;;8.60;99.90;;;;;;4209550;28;20025;-62
2022/10/19 00:45:20;;;;;;;9.67;6.20;;;8.60;99.90;;;;;;4181888;28;20529;-63
2022/10/19 00:47:23;;;;;;;10.27;6.27;;;8.70;99.90;;;;;;4194833;28;20048;-62
2022/10/19 00:49:31;;;;;;;11.33;6.57;;;8.70;99.90;;;;;;4196627;28;20087;-63
2022/10/19 00:51:37;;;;;;;10.17;5.90;;;8.80;99.90;;;;;;4195307;28;20090;-63
2022/10/19 00:53:39;;;;;;;11.97;6.07;;;8.70;99.90;;;;;;4198650;28;20040;-62
2022/10/19 00:55:40;;;;;;;11.63;5.33;;;8.80;99.90;;;;;;4212913;28;20085;-62
2022/10/19 00:57:41;;;;;;;8.77;5.43;;;8.80;99.90;;;;;;4213885;28;20051;-62
2022/10/19 00:59:44;;;;;;;9.63;5.77;;;8.80;99.90;;;;;;4202302;28;20090;-63
2022/10/19 01:01:46;;;;;;;7.57;4.90;;;8.80;99.90;;;;;;4198131;28;20089;-61
2022/10/19 01:03:47;;;;;;;12.80;5.40;;;8.80;99.90;;;;;;4196267;28;20024;-63
2022/10/19 01:05:49;;;;;;;7.67;5.10;;;8.80;99.90;;;;;;4196379;28;20036;-63
2022/10/19 01:07:51;;;;;;;8.67;5.43;;;8.80;99.90;;;;;;4196425;28;20024;-62
2022/10/19 01:09:53;;;;;;;11.63;6.07;;;8.80;99.90;;;;;;4205519;28;20044;-62
2022/10/19 01:12:02;;;;;;;8.50;5.73;;;8.80;99.90;;;;;;4212247;28;20073;-62
2022/10/19 01:14:22;;;;;;;12.93;5.50;;;8.80;99.90;;;;;;4212961;28;20088;-63
2022/10/19 01:16:47;;;;;;;12.17;5.13;;;8.70;99.90;;;;;;4213154;28;20430;-62
2022/10/19 01:19:25;;;;;;;8.77;5.37;;;8.70;99.90;;;;;;4205054;28;20102;-63
2022/10/19 01:21:44;;;;;;;10.80;5.83;;;8.70;99.90;;;;;;4209536;28;20035;-62
2022/10/19 01:24:17;;;;;;;9.13;5.13;;;8.70;99.90;;;;;;4213491;28;20024;-63
2022/10/19 01:26:47;;;;;;;8.90;5.30;;;8.70;99.90;;;;;;4212340;28;20525;-62
2022/10/19 01:29:15;;;;;;;9.20;4.70;;;8.70;99.90;;;;;;4213359;28;20021;-63
2022/10/19 01:31:19;;;;;;;10.50;5.03;;;8.70;99.90;;;;;;4210738;28;20035;-63
2022/10/19 01:33:31;;;;;;;9.33;5.20;;;8.70;99.90;;;;;;4178243;28;20064;-63
2022/10/19 01:35:54;;;;;;;8.83;4.67;;;8.70;99.90;;;;;;4195590;28;20063;-64
2022/10/19 01:38:01;;;;;;;10.63;5.57;;;8.60;99.90;;;;;;4178973;28;20061;-63
2022/10/19 01:40:08;;;;;;;11.70;6.30;;;8.60;99.90;;;;;;4190374;28;20094;-64
2022/10/19 01:42:17;;;;;;;12.10;7.80;;;8.60;99.90;;;;;;4195491;28;20435;-63
2022/10/19 01:44:41;;;;;;;14.27;7.70;;;8.50;99.90;;;;;;4197963;28;20073;-63
2022/10/19 01:46:57;;;;;;;20.73;7.80;;;8.40;99.90;;;;;;4211205;28;20032;-62
2022/10/19 01:49:21;;;;;;;12.93;7.60;;;8.30;99.90;;;;;;4211074;28;20028;-63
2022/10/19 01:51:28;;;;;;;13.77;8.10;;;8.20;99.90;;;;;;4199303;28;20078;-63
2022/10/19 01:53:38;;;;;;;11.50;6.90;;;8.20;99.90;;;;;;4196237;28;20157;-63
2022/10/19 01:55:43;;;;;;;15.00;7.85;;;8.10;99.90;;;;;;4206259;28;20472;-62
2022/10/19 01:57:52;;;;;;;13.37;7.50;;;8.10;99.90;;;;;;4212037;28;20101;-62
2022/10/19 01:59:56;;;;;;;11.27;7.20;;;8.10;99.90;;;;;;4212113;28;20383;-62
2022/10/19 02:01:59;;;;;;;15.80;7.60;;;8.00;99.90;;;;;;4212003;28;20059;-63
2022/10/19 02:04:02;;;;;;;11.53;7.10;;;8.00;99.90;;;;;;4212388;28;20541;-63
2022/10/19 02:06:06;;;;;;;12.57;6.97;;;8.00;99.90;;;;;;4210884;28;20055;-63
2022/10/19 02:08:18;;;;;;;10.90;7.07;;;7.90;99.90;;;;;;4211492;28;20109;-63
2022/10/19 02:10:19;;;;;;;10.57;6.70;;;8.00;99.90;;;;;;4211765;28;20024;-64
2022/10/19 02:12:21;;;;;;;9.80;7.13;;;7.90;99.90;;;;;;4200771;28;20044;-63
2022/10/19 02:14:26;;;;;;;10.13;6.47;;;7.90;99.90;;;;;;4181985;28;20040;-63
2022/10/19 02:16:38;;;;;;;9.73;6.23;;;7.90;99.90;;;;;;4212645;28;20016;-63
2022/10/19 02:18:45;;;;;;;14.00;6.67;;;7.80;99.90;;;;;;4211358;28;20089;-63
2022/10/19 02:20:47;;;;;;;8.40;5.77;;;7.80;99.90;;;;;;4211976;28;20429;-63
2022/10/19 02:22:48;;;;;;;11.80;6.30;;;7.80;99.90;;;;;;4198455;28;20823;-62
2022/10/19 02:24:49;;;;;;;10.97;6.47;;;7.80;99.90;;;;;;4196141;28;20041;-63
2022/10/19 02:26:52;;;;;;;12.57;6.57;;;7.70;99.90;;;;;;4211421;28;20036;-63
2022/10/19 02:28:55;;;;;;;11.67;7.00;;;7.70;99.90;;;;;;4206115;28;20049;-63
2022/10/19 02:30:58;;;;;;;9.50;6.03;;;7.60;99.90;;;;;;4195139;28;20037;-63
2022/10/19 02:32:59;;;;;;;9.93;6.07;;;7.60;99.90;;;;;;4212422;28;20027;-63
2022/10/19 02:35:00;;;;;;;10.57;5.57;;;7.50;99.90;;;;;;4210912;28;20040;-63
2022/10/19 02:37:02;;;;;;;11.83;6.57;;;7.40;99.90;;;;;;4210061;28;20108;-64
2022/10/19 02:39:05;;;;;;;10.77;6.87;;;7.40;99.90;;;;;;4209901;28;20101;-62
2022/10/19 02:41:35;;;;;;;17.67;7.00;;;7.30;99.90;;;;;;4211724;28;20442;-62
2022/10/19 02:43:39;;;;;;;12.80;6.00;;;7.30;99.90;;;;;;4174908;28;20089;-63
2022/10/19 02:45:50;;;;;;;10.67;6.03;;;7.40;99.90;;;;;;4211546;28;20036;-63
2022/10/19 02:47:54;;;;;;;;;;;7.40;99.90;;;;;;4193222;28;20040;-62
2022/10/19 02:49:55;;;;;;;9.47;5.90;;;7.50;99.90;;;;;;4211865;28;19949;-63
2022/10/19 02:52:00;;;;;;;12.40;5.97;;;7.50;99.90;;;;;;4197735;28;20365;-63
2022/10/19 02:54:02;;;;;;;11.50;5.77;;;7.50;99.90;;;;;;4199294;28;20081;-63
2022/10/19 02:56:04;;;;;;;13.70;6.10;;;7.50;99.90;;;;;;4209473;28;20032;-63
2022/10/19 02:58:05;;;;;;;9.90;5.90;;;7.50;99.90;;;;;;4202914;28;20542;-63
2022/10/19 03:00:07;;;;;;;8.97;5.73;;;7.60;99.90;;;;;;4211210;28;20105;-62
2022/10/19 03:02:08;;;;;;;12.60;5.37;;;7.60;99.90;;;;;;4203597;28;20157;-62
2022/10/19 03:04:09;;;;;;;15.00;6.03;;;7.60;99.90;;;;;;4176821;28;20033;-62
2022/10/19 03:06:11;;;;;;;11.00;6.03;;;7.70;99.90;;;;;;4195139;28;20085;-62
2022/10/19 03:08:12;;;;;;;10.47;7.20;;;7.60;99.90;;;;;;4195029;28;20502;-62
2022/10/19 03:10:13;;;;;;;13.57;7.97;;;7.60;99.90;;;;;;4193174;28;20033;-62
2022/10/19 03:12:14;;;;;;;14.03;7.67;;;7.50;99.90;;;;;;4200808;28;20105;-62
2022/10/19 03:14:16;;;;;;;12.67;7.20;;;7.40;99.90;;;;;;4208597;28;20028;-61
2022/10/19 03:16:17;;;;;;;10.17;6.83;;;7.30;99.90;;;;;;4206507;28;20358;-62
2022/10/19 03:18:18;;;;;;;12.47;6.40;;;7.30;99.90;;;;;;4194103;28;20032;-63
2022/10/19 03:20:19;;;;;;;9.17;5.60;;;7.30;99.90;;;;;;4204849;28;20491;-62
2022/10/19 03:22:20;;;;;;;9.23;5.50;;;7.20;99.90;;;;;;4191824;28;20421;-62
2022/10/19 03:24:21;;;;;;;11.00;5.70;;;7.30;99.90;;;;;;4211479;28;20081;-62
2022/10/19 03:26:23;;;;;;;7.43;5.77;;;7.30;99.90;;;;;;4208903;28;20073;-62
2022/10/19 03:28:24;;;;;;;9.30;5.57;;;7.30;99.90;;;;;;4191860;28;20040;-62
2022/10/19 03:30:25;;;;;;;9.17;5.27;;;7.30;99.90;;;;;;4201795;28;20036;-60
2022/10/19 03:32:27;;;;;;;8.07;4.60;;;7.30;99.90;;;;;;4204902;28;20288;-63
2022/10/19 03:34:28;;;;;;;13.77;6.33;;;7.40;99.90;;;;;;4193652;28;20036;-62
2022/10/19 03:36:32;;;;;;;8.53;5.57;;;7.40;99.90;;;;;;4176915;28;20033;-62
2022/10/19 03:38:33;;;;;;;11.50;5.10;;;7.40;99.90;;;;;;4193933;28;20056;-62
2022/10/19 03:40:34;;;;;;;10.80;5.33;;;7.30;99.90;;;;;;4193822;28;20488;-62
2022/10/19 03:42:36;;;;;;;11.03;5.93;;;7.30;99.90;;;;;;4194636;28;20036;-63
2022/10/19 03:44:37;;;;;;;8.27;5.37;;;7.20;99.90;;;;;;4201535;28;20082;-63
2022/10/19 03:46:38;;;;;;;13.40;5.53;;;7.20;99.90;;;;;;4180080;28;20045;-62
2022/10/19 03:48:39;;;;;;;9.47;4.97;;;7.20;99.90;;;;;;4193708;28;20032;-63
2022/10/19 03:50:40;;;;;;;7.33;4.97;;;7.10;99.90;;;;;;4194004;28;20438;-63
2022/10/19 03:52:42;;;;;;;7.63;5.60;;;7.10;99.90;;;;;;4193311;28;20087;-63
2022/10/19 03:54:44;;;;;;;10.10;5.50;;;7.00;99.90;;;;;;4195996;28;20426;-64
2022/10/19 03:56:46;;;;;;;8.93;5.30;;;7.00;99.90;;;;;;4193272;28;20032;-63
2022/10/19 03:58:49;;;;;;;8.13;5.43;;;6.90;99.90;;;;;;4196304;28;20052;-63
2022/10/19 04:00:50;;;;;;;10.93;5.93;;;6.90;99.90;;;;;;4199590;28;20036;-63
2022/10/19 04:02:51;;;;;;;11.47;6.40;;;6.80;99.90;;;;;;4198584;28;20051;-62
2022/10/19 04:04:52;;;;;;;12.97;5.70;;;6.80;99.90;;;;;;4193877;28;20029;-64
2022/10/19 04:06:54;;;;;;;11.43;6.00;;;6.70;99.90;;;;;;4192811;28;20759;-64
2022/10/19 04:08:56;;;;;;;8.63;6.03;;;6.70;99.90;;;;;;4193750;28;20086;-62
2022/10/19 04:11:02;;;;;;;9.50;5.50;;;6.60;99.90;;;;;;4197744;28;20086;-62
2022/10/19 04:13:03;;;;;;;13.47;6.90;;;6.60;99.90;;;;;;4193579;28;20040;-63
2022/10/19 04:15:04;;;;;;;9.93;5.87;;;6.50;99.90;;;;;;4193840;28;20480;-62
2022/10/19 04:17:05;;;;;;;10.43;6.27;;;6.50;99.90;;;;;;4203816;28;20061;-62
2022/10/19 04:19:07;;;;;;;8.07;5.67;;;6.50;99.90;;;;;;4192551;28;20036;-64
2022/10/19 04:21:31;;;;;;;9.47;6.03;;;6.50;99.90;;;;;;4195067;28;20037;-62
2022/10/19 04:23:34;;;;;;;10.80;6.63;;;6.50;99.90;;;;;;4196217;28;20093;-61
2022/10/19 04:25:35;;;;;;;9.40;5.83;;;6.50;99.90;;;;;;4197143;28;20036;-62
2022/10/19 04:27:37;;;;;;;9.53;6.27;;;6.50;99.90;;;;;;4194315;28;20041;-63
2022/10/19 04:29:38;;;;;;;12.13;5.87;;;6.50;99.90;;;;;;4196897;28;20082;-63
2022/10/19 04:31:39;;;;;;;9.73;6.00;;;6.50;99.90;;;;;;4177669;28;20037;-63
2022/10/19 04:33:41;;;;;;;15.20;6.47;;;6.50;99.90;;;;;;4178845;28;20045;-62
2022/10/19 04:35:42;;;;;;;9.73;6.40;;;6.60;99.90;;;;;;4197096;28;20494;-62
2022/10/19 04:37:43;;;;;;;13.03;6.83;;;6.50;99.90;;;;;;4197841;28;20025;-63
2022/10/19 04:39:44;;;;;;;10.83;6.10;;;6.50;99.90;;;;;;4212013;28;20451;-62
2022/10/19 04:41:45;;;;;;;16.07;7.47;;;6.50;99.90;;;;;;4212699;28;20040;-62
2022/10/19 04:43:48;;;;;;;10.53;6.20;;;6.50;99.90;;;;;;4212371;28;20462;-63
2022/10/19 04:45:49;;;;;;;10.33;6.73;;;6.40;99.90;;;;;;4212927;28;20032;-62
2022/10/19 04:47:53;;;;;;;14.67;6.97;;;6.40;99.90;;;;;;4186110;28;20045;-63
2022/10/19 04:49:54;;;;;;;8.77;5.83;;;6.40;99.90;;;;;;4164595;28;20045;-62
2022/10/19 04:51:55;;;;;;;11.70;7.00;;;6.40;99.90;;;;;;4213899;28;20040;-61
2022/10/19 04:53:57;;;;;;;9.77;6.00;;;6.40;99.90;;;;;;4209650;28;20456;-61
2022/10/19 04:55:58;;;;;;;10.60;6.70;;;6.40;99.90;;;;;;4201581;28;20073;-61
2022/10/19 04:57:59;;;;;;;15.60;6.30;;;6.40;99.90;;;;;;4211399;28;20141;-62
2022/10/19 05:00:00;;;;;;;10.80;6.83;;;6.40;99.90;;;;;;4213972;28;20043;-61
2022/10/19 05:02:02;;;;;;;9.50;6.17;;;6.60;99.90;;;;;;4202916;28;20439;-62
2022/10/19 05:04:03;;;;;;;15.13;7.17;;;6.70;99.90;;;;;;4197038;28;20041;-61
2022/10/19 05:06:05;;;;;;;9.27;5.70;;;6.90;99.90;;;;;;4194820;28;20043;-62
2022/10/19 05:08:08;;;;;;;12.70;5.60;;;7.00;99.90;;;;;;4196646;28;20036;-61
2022/10/19 05:10:10;;;;;;;8.80;5.53;;;7.30;99.90;;;;;;4195551;28;20091;-63
2022/10/19 05:12:11;;;;;;;9.40;6.13;;;7.50;99.90;;;;;;4201505;28;20177;-63
2022/10/19 05:14:12;;;;;;;12.63;5.83;;;7.90;99.90;;;;;;4212205;28;20089;-62
2022/10/19 05:16:16;;;;;;;10.03;4.60;;;8.20;99.90;;;;;;4212572;28;20024;-63
2022/10/19 05:18:17;;;;;;;11.13;4.50;;;8.50;99.90;;;;;;4213472;28;20465;-62
2022/10/19 05:20:19;;;;;;;7.73;4.77;;;8.80;99.90;;;;;;4212196;28;20101;-61
2022/10/19 05:22:20;;;;;;;8.50;4.73;;;9.00;99.90;;;;;;4212285;28;20040;-63
2022/10/19 05:24:21;;;;;;;8.30;5.13;;;9.30;99.90;;;;;;4211821;28;20522;-62
2022/10/19 05:26:25;;;;;;;9.63;4.60;;;9.80;99.90;;;;;;4213318;28;20021;-62
2022/10/19 05:28:26;;;;;;;9.30;4.60;;;10.10;99.90;;;;;;4212140;28;20024;-63
2022/10/19 05:30:27;;;;;;;8.33;3.83;;;10.30;99.90;;;;;;4212354;28;20065;-63
2022/10/19 05:32:28;;;;;;;13.73;4.87;;;10.40;99.90;;;;;;4211353;28;20105;-63
2022/10/19 05:34:29;;;;;;;6.87;3.20;;;10.50;99.90;;;;;;4195180;28;20522;-62
2022/10/19 05:36:37;;;;;;;9.53;5.03;;;10.80;99.90;;;;;;4211416;28;20442;-62
2022/10/19 05:38:38;;;;;;;8.67;3.93;;;11.00;99.90;;;;;;4212874;28;20073;-61
2022/10/19 05:40:44;;;;;;;14.10;4.20;;;11.30;99.90;;;;;;4193132;28;20083;-62
2022/10/19 05:42:45;;;;;;;16.37;4.83;;;11.70;99.90;;;;;;4212605;28;20028;-62
2022/10/19 05:44:46;;;;;;;15.80;4.53;;;12.00;99.90;;;;;;4211954;28;20073;-61
2022/10/19 05:46:49;;;;;;;16.07;4.20;;;12.20;99.90;;;;;;4211645;28;20434;-62
2022/10/19 05:48:50;;;;;;;11.30;4.67;;;12.50;99.90;;;;;;4212203;28;20028;-62
2022/10/19 05:50:53;;;;;;;13.80;5.47;;;12.60;99.90;;;;;;4210890;28;20040;-62
2022/10/19 05:52:54;;;;;;;11.80;5.07;;;12.80;99.90;;;;;;4212601;28;20032;-61
2022/10/19 05:54:57;;;;;;;14.80;5.07;;;12.80;99.90;;;;;;4211526;28;20032;-62
2022/10/19 05:56:58;;;;;;;8.47;3.43;;;12.90;99.90;;;;;;4211914;28;20044;-62
2022/10/19 05:59:02;;;;;;;6.40;3.53;;;13.00;99.90;;;;;;4211172;28;20129;-62
2022/10/19 06:01:03;;;;;;;6.45;3.47;;;13.30;99.90;;;;;;4212802;28;20036;-62
2022/10/19 06:03:04;;;;;;;6.18;3.70;;;13.60;99.90;;;;;;4211567;28;20117;-62
2022/10/19 06:05:06;;;;;;;7.25;4.10;;;13.70;99.90;;;;;;4212721;28;20426;-63
2022/10/19 06:07:07;;;;;;;5.65;2.83;;;13.70;99.90;;;;;;4211631;28;20028;-62
2022/10/19 06:09:09;;;;;;;11.50;2.90;;;13.40;99.90;;;;;;4212889;28;20558;-62
2022/10/19 06:11:20;;;;;;;7.13;3.20;;;13.30;99.90;;;;;;4211529;28;20899;-63
2022/10/19 06:13:21;;;;;;;6.28;2.70;;;13.30;99.90;;;;;;4212642;28;20031;-62
2022/10/19 06:15:22;;;;;;;5.93;2.90;;;13.30;99.90;;;;;;4211419;28;20028;-62
2022/10/19 06:17:23;;;;;;;11.00;3.00;;;13.50;99.90;;;;;;4212028;28;20545;-62
2022/10/19 06:19:24;;;;;;;7.53;2.90;;;13.90;99.90;;;;;;4211461;28;20078;-62
2022/10/19 06:21:28;;;;;;;4.05;2.42;;;14.20;99.90;;;;;;4211903;28;20028;-61
2022/10/19 06:23:31;;;;;;;6.65;2.95;;;14.40;99.90;;;;;;4211241;28;20032;-61
2022/10/19 06:25:33;;;;;;;10.35;3.25;;;14.70;99.90;;;;;;4210831;28;20065;-62
2022/10/19 06:27:34;;;;;;;9.00;3.22;;;14.80;99.90;;;;;;4211498;28;20044;-62
2022/10/19 06:29:35;;;;;;;6.57;2.83;;;15.10;99.90;;;;;;4210595;28;20100;-62
2022/10/19 06:31:37;;;;;;;7.75;2.55;;;15.50;99.90;;;;;;4211921;28;20093;-61
2022/10/19 06:33:39;;;;;;;5.82;2.72;;;15.80;99.90;;;;;;4210835;28;20048;-62
2022/10/19 06:35:41;;;;;;;6.95;2.72;;;16.00;99.90;;;;;;4211396;28;20040;-62
2022/10/19 06:37:43;;;;;;;6.30;2.50;;;16.10;99.90;;;;;;4211172;28;20032;-63
2022/10/19 06:39:44;;;;;;;4.13;2.40;;;16.00;99.90;;;;;;4212144;28;20040;-61
2022/10/19 06:41:45;;;;;;;6.82;2.85;;;15.70;99.80;;;;;;4211040;28;20430;-62
2022/10/19 06:43:54;;;;;;;6.25;2.35;;;15.70;99.90;;;;;;4212013;28;20066;-62
2022/10/19 06:45:55;;;;;;;8.75;4.07;;;15.90;99.30;;;;;;4210785;28;20476;-63
2022/10/19 06:47:58;;;;;;;7.70;3.13;;;16.10;99.70;;;;;;4211509;28;20361;-61
2022/10/19 06:49:59;;;;;;;8.75;2.88;;;16.40;99.40;;;;;;4209945;28;20074;-62
2022/10/19 06:52:04;;;;;;;6.20;2.90;;;16.40;98.70;;;;;;4211887;28;20032;-61
2022/10/19 06:54:06;;;;;;;11.63;3.05;;;16.50;98.70;;;;;;4209818;28;20081;-63
2022/10/19 06:56:09;;;;;;;8.00;3.13;;;16.40;98.40;;;;;;4211721;28;20093;-62
2022/10/19 06:58:10;;;;;;;8.68;2.90;;;16.20;98.70;;;;;;4210697;28;20557;-63
2022/10/19 07:00:12;;;;;;;7.00;3.05;;;16.30;98.50;;;;;;4211268;28;20043;-63
2022/10/19 07:02:14;;;;;;;6.05;2.60;;;16.20;98.30;;;;;;4211070;28;20078;-63
2022/10/19 07:04:15;;;;;;;5.70;2.72;;;15.90;98.20;;;;;;4210699;28;20140;-63
2022/10/19 07:06:16;;;;;;;10.98;3.40;;;16.10;98.50;;;;;;4210923;28;20465;-64
2022/10/19 07:08:17;;;;;;;10.90;3.05;;;16.10;98.30;;;;;;4209676;28;20112;-60
2022/10/19 07:10:19;;;;;;;5.38;2.97;;;15.90;98.20;;;;;;4211063;28;20652;-61
2022/10/19 07:12:20;;;;;;;4.18;2.88;;;15.80;98.50;;;;;;4209933;28;20097;-63
2022/10/19 07:14:23;;;;;;;10.10;3.10;;;15.90;98.50;;;;;;4211645;28;20028;-62
2022/10/19 07:16:24;;;;;;;7.10;2.90;;;15.90;98.20;;;;;;4210352;28;20031;-62
2022/10/19 07:18:26;;;;;;;8.82;2.80;;;15.70;98.30;;;;;;4211306;28;20040;-61
2022/10/19 07:20:28;;;;;;;13.27;3.13;;;15.60;98.10;;;;;;4209496;28;20099;-62
2022/10/19 07:22:30;;;;;;;5.28;2.58;;;15.60;98.10;;;;;;4211390;28;20085;-62
2022/10/19 07:24:31;;;;;;;4.88;2.45;;;15.30;98.00;;;;;;4210254;28;20103;-63
2022/10/19 07:26:32;;;;;;;5.30;2.45;;;15.00;98.20;;;;;;4210438;28;20093;-62
2022/10/19 07:28:34;;;;;;;16.60;3.80;;;15.20;98.40;;;;;;4210151;28;20059;-62
2022/10/19 07:30:37;;;;;;;4.85;3.15;;;15.60;98.40;;;;;;4210435;28;20036;-62
2022/10/19 07:32:38;;;;;;;6.13;2.58;;;16.00;97.90;;;;;;4210547;28;20023;-62
2022/10/19 07:34:39;;;;;;;7.30;3.28;;;16.20;98.00;;;;;;4209825;28;20108;-61
2022/10/19 07:36:44;;;;;;;8.15;2.78;;;16.50;97.70;;;;;;4210935;28;20534;-62
2022/10/19 07:38:46;;;;;;;4.28;2.25;;;16.90;97.50;;;;;;4191551;28;21165;-62
2022/10/19 07:40:47;;;;;;;10.77;3.25;;;17.50;97.10;;;;;;4210249;28;20507;-62
2022/10/19 07:42:48;;;;;;;3.78;2.60;;;17.70;96.70;;;;;;4208972;28;20040;-62
2022/10/19 07:44:49;;;;;;;5.00;2.70;;;17.80;96.30;;;;;;4211173;28;20036;-62
2022/10/19 07:46:50;;;;;;;6.28;2.70;;;17.90;96.20;;;;;;4210125;28;20036;-62
2022/10/19 07:48:52;;;;;;;12.23;3.08;;;18.20;96.20;;;;;;4211557;28;20042;-62
2022/10/19 07:50:53;;;;;;;6.25;2.70;;;18.40;95.70;;;;;;4208836;28;20044;-62
2022/10/19 07:52:54;;;;;;;8.38;3.13;;;18.50;95.40;;;;;;4211061;28;20032;-62
2022/10/19 07:54:55;;;;;;;7.93;3.08;;;18.50;95.30;;;;;;4209811;28;20073;-63
2022/10/19 07:56:56;;;;;;;6.30;2.95;;;18.40;95.00;;;;;;4210096;28;20078;-63
2022/10/19 07:58:59;;;;;;;9.07;2.72;;;18.30;95.30;;;;;;4209564;28;20124;-63
2022/10/19 08:01:10;;;;;;;17.10;7.65;;;18.20;95.30;;;;;;4211014;28;20066;-63
2022/10/19 08:03:11;;;;;;;10.15;5.15;;;17.90;95.20;;;;;;4209692;28;20036;-63
2022/10/19 08:05:12;;;;;;;4.70;3.00;;;17.80;95.70;;;;;;4210731;28;20061;-62
2022/10/19 08:07:13;;;;;;;6.90;3.45;;;17.90;95.70;;;;;;4210484;28;20029;-63
2022/10/19 08:09:15;;;;;;;7.35;3.35;;;18.00;95.70;;;;;;4191687;28;20036;-63
2022/10/19 08:11:23;;;;;;;6.90;2.95;;;18.00;95.50;;;;;;4210726;28;20473;-62
2022/10/19 08:13:24;;;;;;;9.00;3.08;;;18.00;95.30;;;;;;4191470;28;20120;-62
2022/10/19 08:15:25;;;;;;;8.27;3.13;;;18.10;95.50;;;;;;4210896;28;20419;-63
2022/10/19 08:17:26;;;;;;;9.82;3.70;;;18.20;95.40;;;;;;4209948;28;20054;-63
2022/10/19 08:19:27;;;;;;;7.28;3.03;;;18.20;95.30;;;;;;4210878;28;20040;-63
2022/10/19 08:21:30;;;;;;;9.38;3.72;;;18.10;95.30;;;;;;4208950;28;20048;-63
2022/10/19 08:23:31;;;;;;;7.55;3.47;;;18.10;95.50;;;;;;4210719;28;20032;-62
2022/10/19 08:25:32;;;;;;;6.70;3.75;;;18.20;95.50;;;;;;4209640;28;20024;-63
2022/10/19 08:27:33;;;;;;;5.68;3.30;;;18.20;95.30;;;;;;4210577;28;20028;-62
2022/10/19 08:29:34;;;;;;;6.72;3.50;;;18.00;95.30;;;;;;4208681;28;20089;-62
2022/10/19 08:31:36;;;;;;;8.93;3.72;;;18.00;95.50;;;;;;4209878;28;20036;-61
2022/10/19 08:33:38;;;;;;;10.13;3.90;;;17.80;95.50;;;;;;4209729;28;20054;-62
2022/10/19 08:35:39;;;;;;;11.18;3.40;;;17.40;95.70;;;;;;4210387;28;20472;-62
2022/10/19 08:37:40;;;;;;;9.85;3.60;;;17.20;96.10;;;;;;4208893;28;20040;-62
2022/10/19 08:39:41;;;;;;;8.75;4.32;;;17.30;96.30;;;;;;4209209;28;20055;-63
2022/10/19 08:42:00;;;;;;;11.05;4.20;;;17.20;96.40;;;;;;4209929;28;20471;-61
2022/10/19 08:44:29;;;;;;;13.88;4.75;;;17.00;96.30;;;;;;4209886;28;20384;-62
2022/10/19 08:46:47;;;;;;;15.00;5.88;;;17.00;96.60;;;;;;4209579;28;20108;-61
2022/10/19 08:48:48;;;;;;;19.10;7.07;;;17.20;96.60;;;;;;4210858;28;20074;-62
2022/10/19 08:50:50;;;;;;;14.15;5.68;;;17.20;96.80;;;;;;4208556;28;20082;-62
2022/10/19 08:53:02;;;;;;;14.95;7.07;;;17.40;96.80;;;;;;4209960;28;20024;-62
2022/10/19 08:55:15;;;;;;;31.25;15.38;;;17.50;96.50;;;;;;4208614;28;20097;-62
2022/10/19 08:57:19;;;;;;;18.63;8.82;;;17.70;96.50;;;;;;4209779;28;20036;-63
2022/10/19 08:59:35;;;;;;;14.55;6.95;;;17.60;96.70;;;;;;4209602;28;20119;-63
2022/10/19 09:01:50;;;;;;;19.67;7.47;;;17.30;97.20;;;;;;4209090;28;20040;-63
2022/10/19 09:04:05;;;;;;;16.92;7.88;;;17.00;97.70;;;;;;4209215;28;20027;-62
2022/10/19 09:06:38;;;;;;;16.90;7.90;;;16.70;98.40;;;;;;4210387;28;20036;-62
2022/10/19 09:08:39;;;;;;;13.63;7.55;;;16.50;99.00;;;;;;4210585;28;20074;-63
2022/10/19 09:10:43;;;;;;;16.20;8.25;;;16.30;99.30;;;;;;4213395;28;20050;-62
2022/10/19 09:12:46;;;;;;;23.35;9.68;;;16.20;99.60;;;;;;4211571;28;20058;-62
2022/10/19 09:15:11;;;;;;;17.50;8.80;;;16.10;99.90;;;;;;4213331;28;20074;-62
2022/10/19 09:17:15;;;;;;;16.60;8.52;;;15.70;99.90;;;;;;4211384;28;20106;-61
2022/10/19 09:19:28;;;;;;;20.02;9.00;;;15.60;99.90;;;;;;4213411;28;20032;-62
2022/10/19 09:21:52;;;;;;;22.02;8.73;;;15.50;99.90;;;;;;4212080;28;20441;-63
2022/10/19 09:24:01;;;;;;;11.80;7.28;;;15.30;99.90;;;;;;4213035;28;20036;-62
2022/10/19 09:26:04;;;;;;;26.20;7.80;;;15.10;99.90;;;;;;4212022;28;20024;-63
2022/10/19 09:28:24;;;;;;;22.92;8.05;;;15.00;99.90;;;;;;4213120;28;20036;-63
2022/10/19 09:30:26;;;;;;;13.82;8.15;;;14.80;99.90;;;;;;4211829;28;20028;-63
2022/10/19 09:32:31;;;;;;;16.15;8.10;;;14.50;99.90;;;;;;4194679;28;20045;-62
2022/10/19 09:34:37;;;;;;;19.60;7.43;;;14.40;99.90;;;;;;4194114;28;20139;-63
2022/10/19 09:36:42;;;;;;;12.60;7.72;;;14.40;99.90;;;;;;4213130;28;20024;-62
2022/10/19 09:38:43;;;;;;;17.88;8.57;;;14.50;99.90;;;;;;4211864;28;20403;-62
2022/10/19 09:40:46;;;;;;;15.43;7.90;;;14.60;99.90;;;;;;4211995;28;20517;-62
2022/10/19 09:42:55;;;;;;;18.48;7.70;;;14.60;99.90;;;;;;4211903;28;20086;-62
2022/10/19 09:44:59;;;;;;;22.38;8.45;;;14.70;99.90;;;;;;4212953;28;20078;-62
2022/10/19 09:47:21;;;;;;;18.00;7.72;;;14.80;99.90;;;;;;4212127;28;20031;-62
2022/10/19 09:49:43;;;;;;;14.82;7.38;;;14.90;99.90;;;;;;4212624;28;20044;-62
2022/10/19 09:51:50;;;;;;;11.90;6.95;;;15.00;99.90;;;;;;4211774;28;20040;-62
2022/10/19 09:53:54;;;;;;;14.15;7.15;;;15.10;99.90;;;;;;4212998;28;20016;-61
2022/10/19 09:56:03;;;;;;;13.55;7.75;;;15.30;99.90;;;;;;4211665;28;20089;-62
2022/10/19 09:58:26;;;;;;;17.35;8.02;;;15.40;99.90;;;;;;4212622;28;20441;-63
2022/10/19 10:00:41;;;;;;;15.40;7.50;;;15.50;99.90;;;;;;4211498;28;20031;-62
2022/10/19 10:02:51;;;;;;;24.17;7.75;;;15.60;99.90;;;;;;4211846;28;20101;-62
2022/10/19 10:05:12;;;;;;;13.20;7.32;;;15.80;99.90;;;;;;4206114;28;20115;-61
2022/10/19 10:07:16;;;;;;;19.33;7.22;;;16.00;99.90;;;;;;4212391;28;20346;-61
2022/10/19 10:09:24;;;;;;;14.55;7.50;;;16.20;99.90;;;;;;4211247;28;20036;-63
2022/10/19 10:11:47;;;;;;;17.35;7.22;;;16.40;99.90;;;;;;4212108;28;20056;-63
2022/10/19 10:13:51;;;;;;;17.30;8.27;;;16.60;99.90;;;;;;4211242;28;20426;-62
2022/10/19 10:15:59;;;;;;;16.38;7.55;;;16.70;99.90;;;;;;4212425;28;20024;-63
2022/10/19 10:18:00;;;;;;;15.73;7.78;;;16.60;99.90;;;;;;4210727;28;20109;-62
2022/10/19 10:20:16;;;;;;;14.38;6.60;;;16.50;99.90;;;;;;4211676;28;20096;-63
2022/10/19 10:22:30;;;;;;;13.93;6.82;;;16.50;99.90;;;;;;4211395;28;20024;-62
2022/10/19 10:24:33;;;;;;;23.83;9.82;;;16.70;99.90;;;;;;4212192;28;20027;-63
2022/10/19 10:26:43;;;;;;;19.95;6.57;;;16.80;99.90;;;;;;4211156;28;20024;-63
2022/10/19 10:28:49;;;;;;;8.75;4.78;;;16.90;99.90;;;;;;4212083;28;20032;-62
2022/10/19 10:31:06;;;;;;;7.13;4.10;;;16.80;99.90;;;;;;4211126;28;20032;-62
2022/10/19 10:33:24;;;;;;;8.18;3.55;;;16.90;99.90;;;;;;4212107;28;20422;-61
2022/10/19 10:35:29;;;;;;;10.40;4.22;;;16.90;99.90;;;;;;4210363;28;20040;-63
2022/10/19 10:37:41;;;;;;;7.03;4.15;;;17.10;99.90;;;;;;4211473;28;20476;-63
2022/10/19 10:39:43;;;;;;;10.68;4.18;;;17.20;99.90;;;;;;4211738;28;20565;-64
2022/10/19 10:41:47;;;;;;;14.60;4.53;;;17.40;99.90;;;;;;4211797;28;20036;-62
2022/10/19 10:43:56;;;;;;;11.35;4.40;;;17.40;99.60;;;;;;4210822;28;20036;-62
2022/10/19 10:46:04;;;;;;;13.10;4.85;;;17.30;99.60;;;;;;4211527;28;20044;-62
2022/10/19 10:48:17;;;;;;;8.15;4.50;;;17.40;99.40;;;;;;4210454;28;20085;-62